createdAt,value
2018-08-25T00:00:22.398Z,51.10
2018-08-25T00:02:51.217Z,50.49
2018-08-25T00:05:19.965Z,50.98
2018-08-25T00:07:48.763Z,51.29
2018-08-25T00:10:17.608Z,52.26
2018-08-25T00:12:46.379Z,51.73
2018-08-25T00:15:15.190Z,52.02
2018-08-25T00:17:43.954Z,52.08
2018-08-25T00:20:12.738Z,52.24
2018-08-25T00:22:41.498Z,52.37
2018-08-25T00:25:10.293Z,52.17
2018-08-25T00:27:39.079Z,52.64
2018-08-25T00:30:13.123Z,52.88
2018-08-25T00:32:41.959Z,52.82
2018-08-25T00:35:10.760Z,53.32
2018-08-25T00:37:39.551Z,53.09
2018-08-25T00:40:08.384Z,53.86
2018-08-25T00:42:37.608Z,54.59
2018-08-25T00:45:06.467Z,54.79
2018-08-25T00:47:35.295Z,55.22
2018-08-25T00:50:04.278Z,55.65
2018-08-25T00:52:33.048Z,55.83
2018-08-25T00:55:01.820Z,55.43
2018-08-25T00:57:30.627Z,54.66
2018-08-25T00:59:59.579Z,54.13
2018-08-25T01:02:28.388Z,53.37
2018-08-25T01:04:57.278Z,53.29
2018-08-25T01:07:26.125Z,53.63
2018-08-25T01:09:54.940Z,54.46
2018-08-25T01:12:23.714Z,53.82
2018-08-25T01:14:52.535Z,53.92
2018-08-25T01:17:21.346Z,54.90
2018-08-25T01:19:50.125Z,55.32
2018-08-25T01:22:18.902Z,54.70
2018-08-25T01:24:47.820Z,55.46
2018-08-25T01:27:16.606Z,54.86
2018-08-25T01:29:45.423Z,55.56
2018-08-25T01:32:14.228Z,56.13
2018-08-25T01:34:43.038Z,56.24
2018-08-25T01:37:11.786Z,55.88
2018-08-25T01:39:40.523Z,56.16
2018-08-25T01:42:09.290Z,55.99
2018-08-25T01:44:38.035Z,56.02
2018-08-25T01:47:07.228Z,56.98
2018-08-25T01:49:35.990Z,56.21
2018-08-25T01:52:04.752Z,56.14
2018-08-25T01:54:33.548Z,57.09
2018-08-25T01:57:02.380Z,57.12
2018-08-25T01:59:31.207Z,56.91
2018-08-25T02:01:59.943Z,57.27
2018-08-25T02:04:32.026Z,58.30
2018-08-25T02:07:00.842Z,58.57
2018-08-25T02:09:29.625Z,58.72
2018-08-25T02:11:58.495Z,58.86
2018-08-25T02:14:27.737Z,59.81
2018-08-25T02:16:56.621Z,58.89
2018-08-25T02:19:25.385Z,59.76
2018-08-25T02:21:54.138Z,59.62
2018-08-25T02:24:22.921Z,59.16
2018-08-25T02:26:51.704Z,59.34
2018-08-25T02:29:20.487Z,60.14
2018-08-25T02:31:49.280Z,59.79
2018-08-25T02:34:18.258Z,59.81
2018-08-25T02:36:47.033Z,60.72
2018-08-25T02:39:15.854Z,61.03
2018-08-25T02:41:44.869Z,61.32
2018-08-25T02:44:13.669Z,61.39
2018-08-25T02:46:42.460Z,61.64
2018-08-25T02:49:11.250Z,61.63
2018-08-25T02:51:40.073Z,61.49
2018-08-25T02:54:08.876Z,60.53
2018-08-25T02:56:37.651Z,60.87
2018-08-25T02:59:06.468Z,60.58
2018-08-25T03:01:35.312Z,60.92
2018-08-25T03:04:04.081Z,61.80
2018-08-25T03:06:32.848Z,62.21
2018-08-25T03:09:01.664Z,62.34
2018-08-25T03:11:30.440Z,62.21
2018-08-25T03:13:59.199Z,62.76
2018-08-25T03:16:28.027Z,62.01
2018-08-25T03:18:56.820Z,62.08
2018-08-25T03:21:25.598Z,62.74
2018-08-25T03:23:54.678Z,62.95
2018-08-25T03:26:23.418Z,62.43
2018-08-25T03:28:52.186Z,62.23
2018-08-25T03:31:20.966Z,62.25
2018-08-25T03:33:49.759Z,63.15
2018-08-25T03:36:18.489Z,62.10
2018-08-25T03:38:47.252Z,61.85
2018-08-25T03:41:16.052Z,62.51
2018-08-25T03:43:44.832Z,62.06
2018-08-25T03:46:13.656Z,63.22
2018-08-25T03:48:42.482Z,62.61
2018-08-25T03:51:11.255Z,62.97
2018-08-25T03:53:40.009Z,62.81
2018-08-25T03:56:08.944Z,61.92
2018-08-25T03:58:37.773Z,62.10
2018-08-25T04:01:06.587Z,62.68
2018-08-25T04:03:35.378Z,62.26
2018-08-25T04:06:04.176Z,61.66
2018-08-25T04:08:33.008Z,62.58
2018-08-25T04:11:01.813Z,61.61
2018-08-25T04:13:30.599Z,61.31
2018-08-25T04:15:59.579Z,61.73
2018-08-25T04:18:28.340Z,60.96
2018-08-25T04:20:57.131Z,59.87
2018-08-25T04:23:25.922Z,58.47
2018-08-25T04:25:54.673Z,57.83
2018-08-25T04:28:23.624Z,56.20
2018-08-25T04:30:52.542Z,56.29
2018-08-25T04:33:21.528Z,54.31
2018-08-25T04:35:50.490Z,53.23
2018-08-25T04:38:19.356Z,53.18
2018-08-25T04:40:48.184Z,51.99
2018-08-25T04:43:16.981Z,51.62
2018-08-25T04:45:45.775Z,51.45
2018-08-25T04:48:14.583Z,51.87
2018-08-25T04:50:43.395Z,50.95
2018-08-25T04:53:12.187Z,50.20
2018-08-25T04:55:40.998Z,50.12
2018-08-25T04:58:09.786Z,50.85
2018-08-25T05:00:38.574Z,49.64
2018-08-25T05:03:07.342Z,50.20
2018-08-25T05:05:36.126Z,52.19
2018-08-25T05:08:05.434Z,52.24
2018-08-25T05:10:34.222Z,52.73
2018-08-25T05:13:03.142Z,54.21
2018-08-25T05:15:31.914Z,54.16
2018-08-25T05:18:00.746Z,54.58
2018-08-25T05:20:29.559Z,55.06
2018-08-25T05:22:58.572Z,55.01
2018-08-25T05:25:27.356Z,55.79
2018-08-25T05:27:56.148Z,55.63
2018-08-25T05:30:25.951Z,56.13
2018-08-25T05:32:54.846Z,56.37
2018-08-25T05:35:23.694Z,55.92
2018-08-25T05:37:52.518Z,56.55
2018-08-25T05:40:21.276Z,56.31
2018-08-25T05:42:50.113Z,55.99
2018-08-25T05:45:18.859Z,55.62
2018-08-25T05:47:47.652Z,55.27
2018-08-25T05:50:16.955Z,55.12
2018-08-25T05:52:45.784Z,55.61
2018-08-25T05:55:14.601Z,54.21
2018-08-25T05:57:43.454Z,55.00
2018-08-25T06:00:13.188Z,54.71
2018-08-25T06:02:42.000Z,55.22
2018-08-25T06:05:12.088Z,55.31
2018-08-25T06:07:40.940Z,55.26
2018-08-25T06:10:09.799Z,55.35
2018-08-25T06:12:38.600Z,54.70
2018-08-25T06:15:07.409Z,54.40
2018-08-25T06:17:36.338Z,55.03
2018-08-25T06:20:05.488Z,54.56
2018-08-25T06:22:34.294Z,53.91
2018-08-25T06:25:03.115Z,53.88
2018-08-25T06:27:31.936Z,54.56
2018-08-25T06:30:00.776Z,53.66
2018-08-25T06:32:29.768Z,53.26
2018-08-25T06:34:58.551Z,53.42
2018-08-25T06:37:27.345Z,53.50
2018-08-25T06:39:56.142Z,53.41
2018-08-25T06:42:24.996Z,53.56
2018-08-25T06:44:53.916Z,53.06
2018-08-25T06:47:22.757Z,54.15
2018-08-25T06:49:51.551Z,54.54
2018-08-25T06:52:20.360Z,53.71
2018-08-25T06:54:49.143Z,54.09
2018-08-25T06:57:18.027Z,53.70
2018-08-25T06:59:47.219Z,53.67
2018-08-25T07:02:16.034Z,53.87
2018-08-25T07:04:44.876Z,54.44
2018-08-25T07:07:13.663Z,54.57
2018-08-25T07:09:42.442Z,54.93
2018-08-25T07:12:11.243Z,54.07
2018-08-25T07:14:40.031Z,54.59
2018-08-25T07:17:09.225Z,54.13
2018-08-25T07:19:38.008Z,54.17
2018-08-25T07:22:06.843Z,54.46
2018-08-25T07:24:35.680Z,53.80
2018-08-25T07:27:04.585Z,52.75
2018-08-25T07:29:33.344Z,52.67
2018-08-25T07:32:02.155Z,52.54
2018-08-25T07:34:31.141Z,54.22
2018-08-25T07:36:59.982Z,53.96
2018-08-25T07:39:28.819Z,54.36
2018-08-25T07:41:57.607Z,53.73
2018-08-25T07:44:26.444Z,54.15
2018-08-25T07:46:55.320Z,53.31
2018-08-25T07:49:24.139Z,52.32
2018-08-25T07:51:53.091Z,52.66
2018-08-25T07:54:21.884Z,52.59
2018-08-25T07:56:50.820Z,52.58
2018-08-25T07:59:19.726Z,52.28
2018-08-25T08:01:48.726Z,53.61
2018-08-25T08:04:17.536Z,52.95
2018-08-25T08:06:46.330Z,52.47
2018-08-25T08:09:15.229Z,52.06
2018-08-25T08:11:44.052Z,51.32
2018-08-25T08:14:13.042Z,51.99
2018-08-25T08:16:41.842Z,50.90
2018-08-25T08:19:10.603Z,50.17
2018-08-25T08:21:39.408Z,50.88
2018-08-25T08:24:08.207Z,51.10
2018-08-25T08:26:36.990Z,50.73
2018-08-25T08:29:05.786Z,49.81
2018-08-25T08:31:34.579Z,49.54
2018-08-25T08:34:03.400Z,49.64
2018-08-25T08:36:32.200Z,48.79
2018-08-25T08:39:01.073Z,49.26
2018-08-25T08:41:29.918Z,48.53
2018-08-25T08:43:58.679Z,48.56
2018-08-25T08:46:32.557Z,46.40
2018-08-25T08:49:01.371Z,46.15
2018-08-25T08:51:30.111Z,47.35
2018-08-25T08:53:58.920Z,46.29
2018-08-25T08:56:27.754Z,46.05
2018-08-25T08:58:56.536Z,46.13
2018-08-25T09:01:25.363Z,46.78
2018-08-25T09:03:54.176Z,45.88
2018-08-25T09:06:23.094Z,46.44
2018-08-25T09:08:52.203Z,46.16
2018-08-25T09:11:21.652Z,45.04
2018-08-25T09:13:51.137Z,44.49
2018-08-25T09:16:20.452Z,44.64
2018-08-25T09:18:49.420Z,44.42
2018-08-25T09:21:18.627Z,43.33
2018-08-25T09:23:47.538Z,42.58
2018-08-25T09:26:16.310Z,43.84
2018-08-25T09:28:45.131Z,43.78
2018-08-25T09:31:14.301Z,43.17
2018-08-25T09:33:43.130Z,42.57
2018-08-25T09:36:11.936Z,41.76
2018-08-25T09:38:40.957Z,40.59
2018-08-25T09:41:09.804Z,41.68
2018-08-25T09:43:38.848Z,41.63
2018-08-25T09:46:07.665Z,40.94
2018-08-25T09:48:36.465Z,41.51
2018-08-25T09:51:05.664Z,42.38
2018-08-25T09:53:34.922Z,42.36
2018-08-25T09:56:03.930Z,42.38
2018-08-25T09:58:32.718Z,42.50
2018-08-25T10:01:06.121Z,43.25
2018-08-25T10:03:35.830Z,43.72
2018-08-25T10:06:04.730Z,43.88
2018-08-25T10:08:33.543Z,41.93
2018-08-25T10:11:02.477Z,41.67
2018-08-25T10:13:31.873Z,41.38
2018-08-25T10:16:00.679Z,42.22
2018-08-25T10:18:29.527Z,42.09
2018-08-25T10:20:58.322Z,41.49
2018-08-25T10:23:27.184Z,40.61
2018-08-25T10:25:56.175Z,40.05
2018-08-25T10:28:25.069Z,39.82
2018-08-25T10:30:54.921Z,40.86
2018-08-25T10:33:23.748Z,40.96
2018-08-25T10:35:52.566Z,41.62
2018-08-25T10:38:21.532Z,41.71
2018-08-25T10:40:50.325Z,40.89
2018-08-25T10:43:19.183Z,40.65
2018-08-25T10:45:48.043Z,42.08
2018-08-25T10:48:16.930Z,42.08
2018-08-25T10:50:45.751Z,40.76
2018-08-25T10:53:14.587Z,41.85
2018-08-25T10:55:43.403Z,40.77
2018-08-25T10:58:12.227Z,40.81
2018-08-25T11:00:41.288Z,40.69
2018-08-25T11:03:10.136Z,39.56
2018-08-25T11:05:39.007Z,39.48
2018-08-25T11:08:08.185Z,39.49
2018-08-25T11:10:36.984Z,39.51
2018-08-25T11:13:05.829Z,39.62
2018-08-25T11:15:34.699Z,39.65
2018-08-25T11:18:03.528Z,38.78
2018-08-25T11:20:32.395Z,37.57
2018-08-25T11:23:01.228Z,37.87
2018-08-25T11:25:30.142Z,36.69
2018-08-25T11:27:58.954Z,37.44
2018-08-25T11:30:27.903Z,35.23
2018-08-25T11:32:56.747Z,36.43
2018-08-25T11:35:25.554Z,35.21
2018-08-25T11:37:54.479Z,34.02
2018-08-25T11:40:23.387Z,34.10
2018-08-25T11:42:52.208Z,34.96
2018-08-25T11:45:21.101Z,34.98
2018-08-25T11:47:49.917Z,34.93
2018-08-25T11:50:18.743Z,37.12
2018-08-25T11:52:47.519Z,37.51
2018-08-25T11:55:16.327Z,37.65
2018-08-25T11:57:45.163Z,37.21
2018-08-25T12:00:14.029Z,38.92
2018-08-25T12:02:42.893Z,39.19
2018-08-25T12:05:11.700Z,39.60
2018-08-25T12:07:40.567Z,42.64
2018-08-25T12:10:09.506Z,43.26
2018-08-25T12:12:38.311Z,44.78
2018-08-25T12:15:08.319Z,44.91
2018-08-25T12:17:37.622Z,45.23
2018-08-25T12:20:06.665Z,45.26
2018-08-25T12:22:35.475Z,46.56
2018-08-25T12:25:04.334Z,46.78
2018-08-25T12:27:33.214Z,46.75
2018-08-25T12:30:02.075Z,46.42
2018-08-25T12:32:31.139Z,47.43
2018-08-25T12:34:59.987Z,45.47
2018-08-25T12:37:28.801Z,42.45
2018-08-25T12:39:57.650Z,40.16
2018-08-25T12:42:26.900Z,38.24
2018-08-25T12:44:55.704Z,38.53
2018-08-25T12:47:25.157Z,35.80
2018-08-25T12:49:56.014Z,36.76
2018-08-25T12:52:24.869Z,36.78
2018-08-25T12:54:53.670Z,36.67
2018-08-25T12:57:23.129Z,36.36
2018-08-25T12:59:51.980Z,37.47
2018-08-25T13:02:20.819Z,37.83
2018-08-25T13:04:49.680Z,37.54
2018-08-25T13:07:18.526Z,36.49
2018-08-25T13:09:47.506Z,35.64
2018-08-25T13:12:16.343Z,36.15
2018-08-25T13:14:45.251Z,35.77
2018-08-25T13:17:14.342Z,36.69
2018-08-25T13:19:43.166Z,36.24
2018-08-25T13:22:12.172Z,35.52
2018-08-25T13:24:41.030Z,34.96
2018-08-25T13:27:09.963Z,34.63
2018-08-25T13:29:38.763Z,34.45
2018-08-25T13:32:07.590Z,34.01
2018-08-25T13:34:36.490Z,33.54
2018-08-25T13:37:05.272Z,33.58
2018-08-25T13:39:34.292Z,34.17
2018-08-25T13:42:03.127Z,34.31
2018-08-25T13:44:31.928Z,34.65
2018-08-25T13:47:01.012Z,35.57
2018-08-25T13:49:29.946Z,36.97
2018-08-25T13:51:58.807Z,37.18
2018-08-25T13:54:27.713Z,37.02
2018-08-25T13:56:56.539Z,36.33
2018-08-25T13:59:25.381Z,37.72
2018-08-25T14:01:54.205Z,36.69
2018-08-25T14:04:23.075Z,37.13
2018-08-25T14:06:51.896Z,38.07
2018-08-25T14:09:20.696Z,36.67
2018-08-25T14:11:49.452Z,35.94
2018-08-25T14:14:18.285Z,35.35
2018-08-25T14:16:47.367Z,36.43
2018-08-25T14:19:16.215Z,37.66
2018-08-25T14:21:45.019Z,38.55
2018-08-25T14:24:14.283Z,38.23
2018-08-25T14:26:43.174Z,37.58
2018-08-25T14:29:12.131Z,37.83
2018-08-25T14:31:41.049Z,36.45
2018-08-25T14:34:09.883Z,36.29
2018-08-25T14:36:39.729Z,36.88
2018-08-25T14:39:10.549Z,36.54
2018-08-25T14:41:39.418Z,36.48
2018-08-25T14:44:08.358Z,36.42
2018-08-25T14:46:38.372Z,35.72
2018-08-25T14:49:07.577Z,36.44
2018-08-25T14:51:36.418Z,35.26
2018-08-25T14:54:05.216Z,35.83
2018-08-25T14:56:34.047Z,35.62
2018-08-25T14:59:02.870Z,35.69
2018-08-25T15:01:32.166Z,35.51
2018-08-25T15:04:01.108Z,36.25
2018-08-25T15:06:29.944Z,35.20
2018-08-25T15:08:58.893Z,35.69
2018-08-25T15:11:27.681Z,35.12
2018-08-25T15:13:56.499Z,35.63
2018-08-25T15:16:25.340Z,35.42
2018-08-25T15:18:54.160Z,37.10
2018-08-25T15:21:23.264Z,36.18
2018-08-25T15:23:52.075Z,36.09
2018-08-25T15:26:21.011Z,36.45
2018-08-25T15:28:49.819Z,34.75
2018-08-25T15:34:00.358Z,33.33
2018-08-25T15:36:29.162Z,33.37
2018-08-25T15:38:57.986Z,34.79
2018-08-25T15:41:26.906Z,35.80
2018-08-25T15:43:55.699Z,36.26
2018-08-25T15:46:24.620Z,37.98
2018-08-25T15:48:53.888Z,38.02
2018-08-25T15:51:22.667Z,38.93
2018-08-25T15:53:51.507Z,38.21
2018-08-25T15:56:20.325Z,39.90
2018-08-25T15:58:49.124Z,40.31
2018-08-25T16:01:18.006Z,40.96
2018-08-25T16:03:46.876Z,40.75
2018-08-25T16:06:15.840Z,40.72
2018-08-25T16:08:44.794Z,41.08
2018-08-25T16:11:13.674Z,41.45
2018-08-25T16:13:43.499Z,42.74
2018-08-25T16:16:12.686Z,42.06
2018-08-25T16:18:41.511Z,43.09
2018-08-25T16:21:10.394Z,42.76
2018-08-25T16:23:39.195Z,43.76
2018-08-25T16:26:08.003Z,42.85
2018-08-25T16:28:36.874Z,42.55
2018-08-25T16:31:05.670Z,43.95
2018-08-25T16:33:34.578Z,43.03
2018-08-25T16:36:03.590Z,42.78
2018-08-25T16:38:32.403Z,42.96
2018-08-25T16:41:01.423Z,43.72
2018-08-25T16:43:30.326Z,44.23
2018-08-25T16:45:59.149Z,42.72
2018-08-25T16:48:28.002Z,43.01
2018-08-25T16:50:56.814Z,44.04
2018-08-25T16:53:25.614Z,43.27
2018-08-25T16:55:54.571Z,43.55
2018-08-25T16:58:23.567Z,43.56
2018-08-25T17:00:52.495Z,43.98
2018-08-25T17:03:21.338Z,45.05
2018-08-25T17:05:50.130Z,44.52
2018-08-25T17:08:18.976Z,44.44
2018-08-25T17:10:49.436Z,45.67
2018-08-25T17:13:18.278Z,44.76
2018-08-25T17:15:47.144Z,45.02
2018-08-25T17:18:15.985Z,45.59
2018-08-25T17:20:44.821Z,45.23
2018-08-25T17:23:13.999Z,45.85
2018-08-25T17:25:42.807Z,45.71
2018-08-25T17:28:11.613Z,45.83
2018-08-25T17:30:41.084Z,45.61
2018-08-25T17:33:10.209Z,45.59
2018-08-25T17:35:39.271Z,47.05
2018-08-25T17:38:08.199Z,47.06
2018-08-25T17:40:37.019Z,47.46
2018-08-25T17:43:06.230Z,47.57
2018-08-25T17:45:35.017Z,46.88
2018-08-25T17:48:03.830Z,47.79
2018-08-25T17:50:32.685Z,47.44
2018-08-25T17:53:01.473Z,48.49
2018-08-25T17:55:30.298Z,47.68
2018-08-25T17:57:59.110Z,48.99
2018-08-25T18:00:27.966Z,49.27
2018-08-25T18:02:56.791Z,50.20
2018-08-25T18:05:25.657Z,49.56
2018-08-25T18:07:54.544Z,49.35
2018-08-25T18:10:23.354Z,49.41
2018-08-25T18:12:52.214Z,49.76
2018-08-25T18:15:21.034Z,50.80
2018-08-25T18:17:49.862Z,50.82
2018-08-25T18:20:18.669Z,50.28
2018-08-25T18:22:49.145Z,50.40
2018-08-25T18:25:17.992Z,51.04
2018-08-25T18:27:46.797Z,51.70
2018-08-25T18:30:15.742Z,51.13
2018-08-25T18:32:44.681Z,51.08
2018-08-25T18:35:13.595Z,51.68
2018-08-25T18:37:42.393Z,51.71
2018-08-25T18:40:11.171Z,52.11
2018-08-25T18:42:40.041Z,52.97
2018-08-25T18:45:08.853Z,52.42
2018-08-25T18:47:37.629Z,53.20
2018-08-25T18:50:07.247Z,53.01
2018-08-25T18:52:36.038Z,53.29
2018-08-25T18:55:04.949Z,53.48
2018-08-25T18:57:33.944Z,53.79
2018-08-25T19:00:02.778Z,53.39
2018-08-25T19:02:31.918Z,53.98
2018-08-25T19:05:00.755Z,53.89
2018-08-25T19:07:29.601Z,52.96
2018-08-25T19:09:58.479Z,53.70
2018-08-25T19:12:27.312Z,53.19
2018-08-25T19:14:56.142Z,53.26
2018-08-25T19:17:25.101Z,53.46
2018-08-25T19:19:53.949Z,53.86
2018-08-25T19:22:22.722Z,54.29
2018-08-25T19:24:51.610Z,53.97
2018-08-25T19:27:20.491Z,55.03
2018-08-25T19:29:49.308Z,55.00
2018-08-25T19:32:18.156Z,55.21
2018-08-25T19:34:47.037Z,54.61
2018-08-25T19:37:15.875Z,54.65
2018-08-25T19:39:44.670Z,55.33
2018-08-25T19:42:13.504Z,54.51
2018-08-25T19:44:42.366Z,54.89
2018-08-25T19:47:11.176Z,55.79
2018-08-25T19:49:40.146Z,55.30
2018-08-25T19:52:09.311Z,55.94
2018-08-25T19:54:38.076Z,55.53
2018-08-25T19:57:06.991Z,56.03
2018-08-25T19:59:35.809Z,56.37
2018-08-25T20:02:04.637Z,55.40
2018-08-25T20:04:33.560Z,55.92
2018-08-25T20:07:02.453Z,56.57
2018-08-25T20:09:31.335Z,57.76
2018-08-25T20:12:00.334Z,58.32
2018-08-25T20:14:29.134Z,58.54
2018-08-25T20:16:58.033Z,58.66
2018-08-25T20:19:26.872Z,58.71
2018-08-25T20:21:55.672Z,57.51
2018-08-25T20:24:24.484Z,57.64
2018-08-25T20:26:53.339Z,57.85
2018-08-25T20:29:22.166Z,57.22
2018-08-25T20:31:51.076Z,56.75
2018-08-25T20:34:19.842Z,57.88
2018-08-25T20:36:48.776Z,58.00
2018-08-25T20:39:17.634Z,58.00
2018-08-25T20:41:46.466Z,57.07
2018-08-25T20:44:15.312Z,57.26
2018-08-25T20:46:44.110Z,58.88
2018-08-25T20:49:12.913Z,59.22
2018-08-25T20:51:41.744Z,58.80
2018-08-25T20:54:10.532Z,59.73
2018-08-25T20:56:39.350Z,59.54
2018-08-25T20:59:08.182Z,59.93
2018-08-25T21:01:37.023Z,60.06
2018-08-25T21:04:05.841Z,60.84
2018-08-25T21:06:34.697Z,60.64
2018-08-25T21:09:04.969Z,60.75
2018-08-25T21:11:34.035Z,60.75
2018-08-25T21:14:02.875Z,60.86
2018-08-25T21:16:31.748Z,60.02
2018-08-25T21:19:00.535Z,60.26
2018-08-25T21:21:29.441Z,60.53
2018-08-25T21:23:58.318Z,60.17
2018-08-25T21:26:27.151Z,60.82
2018-08-25T21:28:55.934Z,60.31
2018-08-25T21:31:24.816Z,60.94
2018-08-25T21:33:53.685Z,60.53
2018-08-25T21:36:22.551Z,60.63
2018-08-25T21:38:51.378Z,61.53
2018-08-25T21:41:20.186Z,61.51
2018-08-25T21:43:49.070Z,60.84
2018-08-25T21:46:17.898Z,61.33
2018-08-25T21:48:46.694Z,60.54
2018-08-25T21:51:15.479Z,60.17
2018-08-25T21:53:44.254Z,60.11
2018-08-25T21:56:13.033Z,59.60
2018-08-25T21:58:41.880Z,60.57
2018-08-25T22:01:10.834Z,60.59
2018-08-25T22:03:39.769Z,59.65
2018-08-25T22:06:08.619Z,60.56
2018-08-25T22:08:37.441Z,60.60
2018-08-25T22:11:06.305Z,60.92
2018-08-25T22:13:35.152Z,59.95
2018-08-25T22:16:03.945Z,60.34
2018-08-25T22:18:32.735Z,60.30
2018-08-25T22:21:01.517Z,61.06
2018-08-25T22:23:30.520Z,61.12
2018-08-25T22:25:59.319Z,61.31
2018-08-25T22:28:28.056Z,59.88
2018-08-25T22:30:57.021Z,59.48
2018-08-25T22:33:25.803Z,60.78
2018-08-25T22:35:54.577Z,60.28
2018-08-25T22:38:23.379Z,61.24
2018-08-25T22:40:52.215Z,60.49
2018-08-25T22:43:21.018Z,61.52
2018-08-25T22:45:49.830Z,60.86
2018-08-25T22:48:18.692Z,61.33
2018-08-25T22:50:47.486Z,61.32
2018-08-25T22:53:16.316Z,61.85
2018-08-25T22:55:45.451Z,62.53
2018-08-25T22:58:14.287Z,62.42
2018-08-25T23:00:43.127Z,62.87
2018-08-25T23:03:11.958Z,62.38
2018-08-25T23:05:40.786Z,62.31
2018-08-25T23:08:09.580Z,62.79
2018-08-25T23:10:38.539Z,63.42
2018-08-25T23:13:07.494Z,63.27
2018-08-25T23:15:36.268Z,63.93
2018-08-25T23:18:05.169Z,63.25
2018-08-25T23:20:33.964Z,63.30
2018-08-25T23:23:03.040Z,64.16
2018-08-25T23:25:31.822Z,64.22
2018-08-25T23:28:00.622Z,63.94
2018-08-25T23:38:03.354Z,65.45
2018-08-25T23:40:32.146Z,65.79
2018-08-25T23:45:09.134Z,66.50
2018-08-25T23:47:37.893Z,66.39
2018-08-25T23:50:07.101Z,66.65
2018-08-25T23:52:37.249Z,65.90
2018-08-25T23:55:07.753Z,66.03
2018-08-25T23:57:36.559Z,65.07
